sensor_id;sensor_type;location;lat;lon;timestamp;temperature;humidity
25208;DHT22;13153;52.316;21.166;2023-04-06T00:01:39;2.90;99.90
25208;DHT22;13153;52.316;21.166;2023-04-06T00:04:06;2.90;99.90
25208;DHT22;13153;52.316;21.166;2023-04-06T00:06:32;2.90;99.90
25208;DHT22;13153;52.316;21.166;2023-04-06T00:08:59;2.80;99.90
25208;DHT22;13153;52.316;21.166;2023-04-06T00:11:26;2.80;99.90
25208;DHT22;13153;52.316;21.166;2023-04-06T00:13:52;2.80;99.90
25208;DHT22;13153;52.316;21.166;2023-04-06T00:16:18;2.80;99.90
25208;DHT22;13153;52.316;21.166;2023-04-06T00:18:44;2.80;99.90
25208;DHT22;13153;52.316;21.166;2023-04-06T00:21:12;2.80;99.90
25208;DHT22;13153;52.316;21.166;2023-04-06T00:23:38;2.80;99.90
25208;DHT22;13153;52.316;21.166;2023-04-06T00:26:05;2.80;99.90
25208;DHT22;13153;52.316;21.166;2023-04-06T00:28:30;2.70;99.90
25208;DHT22;13153;52.316;21.166;2023-04-06T00:30:56;2.70;99.90
25208;DHT22;13153;52.316;21.166;2023-04-06T00:33:23;2.70;99.90
25208;DHT22;13153;52.316;21.166;2023-04-06T00:35:49;2.70;99.90
25208;DHT22;13153;52.316;21.166;2023-04-06T00:38:15;2.70;99.90
25208;DHT22;13153;52.316;21.166;2023-04-06T00:40:41;2.60;99.90
25208;DHT22;13153;52.316;21.166;2023-04-06T00:43:11;2.70;99.90
25208;DHT22;13153;52.316;21.166;2023-04-06T00:45:38;2.70;99.90
25208;DHT22;13153;52.316;21.166;2023-04-06T00:48:06;2.80;99.90
25208;DHT22;13153;52.316;21.166;2023-04-06T00:50:32;2.80;99.90
25208;DHT22;13153;52.316;21.166;2023-04-06T00:52:59;2.80;99.90
25208;DHT22;13153;52.316;21.166;2023-04-06T00:55:26;2.80;99.90
25208;DHT22;13153;52.316;21.166;2023-04-06T00:57:53;2.80;99.90
25208;DHT22;13153;52.316;21.166;2023-04-06T01:00:20;2.80;99.90
25208;DHT22;13153;52.316;21.166;2023-04-06T01:02:46;2.90;99.90
25208;DHT22;13153;52.316;21.166;2023-04-06T01:05:13;2.90;99.90
25208;DHT22;13153;52.316;21.166;2023-04-06T01:07:39;2.90;99.90
25208;DHT22;13153;52.316;21.166;2023-04-06T01:10:05;2.90;99.90
25208;DHT22;13153;52.316;21.166;2023-04-06T01:12:31;2.90;99.90
25208;DHT22;13153;52.316;21.166;2023-04-06T01:14:57;2.90;99.90
25208;DHT22;13153;52.316;21.166;2023-04-06T01:17:23;2.90;99.90
25208;DHT22;13153;52.316;21.166;2023-04-06T01:19:49;2.90;99.90
25208;DHT22;13153;52.316;21.166;2023-04-06T01:22:17;2.90;99.90
25208;DHT22;13153;52.316;21.166;2023-04-06T01:24:44;2.90;99.90
25208;DHT22;13153;52.316;21.166;2023-04-06T01:27:10;2.90;99.90
25208;DHT22;13153;52.316;21.166;2023-04-06T01:29:36;2.90;99.90
25208;DHT22;13153;52.316;21.166;2023-04-06T01:32:02;2.90;99.90
25208;DHT22;13153;52.316;21.166;2023-04-06T01:34:28;2.90;99.90
25208;DHT22;13153;52.316;21.166;2023-04-06T01:36:54;2.90;99.90
25208;DHT22;13153;52.316;21.166;2023-04-06T01:39:20;2.80;99.90
25208;DHT22;13153;52.316;21.166;2023-04-06T01:41:46;2.90;99.90
25208;DHT22;13153;52.316;21.166;2023-04-06T01:44:18;2.90;99.90
25208;DHT22;13153;52.316;21.166;2023-04-06T01:46:44;2.90;99.90
25208;DHT22;13153;52.316;21.166;2023-04-06T01:49:11;2.80;99.90
25208;DHT22;13153;52.316;21.166;2023-04-06T01:51:37;2.80;99.90
25208;DHT22;13153;52.316;21.166;2023-04-06T01:54:04;2.80;99.90
25208;DHT22;13153;52.316;21.166;2023-04-06T01:56:29;2.80;99.90
25208;DHT22;13153;52.316;21.166;2023-04-06T01:58:55;2.80;99.90
25208;DHT22;13153;52.316;21.166;2023-04-06T02:01:21;2.80;99.90
25208;DHT22;13153;52.316;21.166;2023-04-06T02:03:47;2.80;99.90
25208;DHT22;13153;52.316;21.166;2023-04-06T02:06:13;2.80;99.90
25208;DHT22;13153;52.316;21.166;2023-04-06T02:08:39;2.80;99.90
25208;DHT22;13153;52.316;21.166;2023-04-06T02:11:05;2.70;99.90
25208;DHT22;13153;52.316;21.166;2023-04-06T02:13:31;2.80;99.90
25208;DHT22;13153;52.316;21.166;2023-04-06T02:15:57;2.70;99.90
25208;DHT22;13153;52.316;21.166;2023-04-06T02:18:22;2.70;99.90
25208;DHT22;13153;52.316;21.166;2023-04-06T02:20:48;2.70;99.90
25208;DHT22;13153;52.316;21.166;2023-04-06T02:23:14;2.70;99.90
25208;DHT22;13153;52.316;21.166;2023-04-06T02:25:40;2.70;99.90
25208;DHT22;13153;52.316;21.166;2023-04-06T02:28:06;2.70;99.90
25208;DHT22;13153;52.316;21.166;2023-04-06T02:30:32;2.70;99.90
25208;DHT22;13153;52.316;21.166;2023-04-06T02:33:00;2.60;99.90
25208;DHT22;13153;52.316;21.166;2023-04-06T02:35:28;2.60;99.90
25208;DHT22;13153;52.316;21.166;2023-04-06T02:37:54;2.60;99.90
25208;DHT22;13153;52.316;21.166;2023-04-06T02:40:20;2.50;99.90
25208;DHT22;13153;52.316;21.166;2023-04-06T02:42:46;2.50;99.90
25208;DHT22;13153;52.316;21.166;2023-04-06T02:45:12;2.50;99.90
25208;DHT22;13153;52.316;21.166;2023-04-06T02:47:37;2.50;99.90
25208;DHT22;13153;52.316;21.166;2023-04-06T02:50:04;2.40;99.90
25208;DHT22;13153;52.316;21.166;2023-04-06T02:52:30;2.50;99.90
25208;DHT22;13153;52.316;21.166;2023-04-06T02:54:56;2.40;99.90
25208;DHT22;13153;52.316;21.166;2023-04-06T02:57:21;2.40;99.90
25208;DHT22;13153;52.316;21.166;2023-04-06T02:59:47;2.40;99.90
25208;DHT22;13153;52.316;21.166;2023-04-06T03:02:13;2.30;99.90
25208;DHT22;13153;52.316;21.166;2023-04-06T03:04:38;2.30;99.90
25208;DHT22;13153;52.316;21.166;2023-04-06T03:07:04;2.30;99.90
25208;DHT22;13153;52.316;21.166;2023-04-06T03:09:30;2.30;99.90
25208;DHT22;13153;52.316;21.166;2023-04-06T03:11:56;2.20;99.90
25208;DHT22;13153;52.316;21.166;2023-04-06T03:14:22;2.20;99.90
25208;DHT22;13153;52.316;21.166;2023-04-06T03:16:48;2.20;99.90
25208;DHT22;13153;52.316;21.166;2023-04-06T03:19:14;2.20;99.90
25208;DHT22;13153;52.316;21.166;2023-04-06T03:21:40;2.20;99.90
25208;DHT22;13153;52.316;21.166;2023-04-06T03:24:07;2.20;99.90
25208;DHT22;13153;52.316;21.166;2023-04-06T03:26:33;2.10;99.90
25208;DHT22;13153;52.316;21.166;2023-04-06T03:28:59;2.10;99.90
25208;DHT22;13153;52.316;21.166;2023-04-06T03:31:26;2.10;99.90
25208;DHT22;13153;52.316;21.166;2023-04-06T03:33:52;2.10;99.90
25208;DHT22;13153;52.316;21.166;2023-04-06T03:36:18;2.10;99.90
25208;DHT22;13153;52.316;21.166;2023-04-06T03:38:43;2.10;99.90
25208;DHT22;13153;52.316;21.166;2023-04-06T03:41:09;2.10;99.90
25208;DHT22;13153;52.316;21.166;2023-04-06T03:43:35;2.10;99.90
25208;DHT22;13153;52.316;21.166;2023-04-06T03:46:01;2.10;99.90
25208;DHT22;13153;52.316;21.166;2023-04-06T03:48:27;2.20;99.90
25208;DHT22;13153;52.316;21.166;2023-04-06T03:50:53;2.10;99.90
25208;DHT22;13153;52.316;21.166;2023-04-06T03:53:18;2.10;99.90
25208;DHT22;13153;52.316;21.166;2023-04-06T03:55:44;2.20;99.90
25208;DHT22;13153;52.316;21.166;2023-04-06T03:58:10;2.20;99.90
25208;DHT22;13153;52.316;21.166;2023-04-06T04:00:36;2.10;99.90
25208;DHT22;13153;52.316;21.166;2023-04-06T04:03:01;2.20;99.90
25208;DHT22;13153;52.316;21.166;2023-04-06T04:05:28;2.10;99.90
25208;DHT22;13153;52.316;21.166;2023-04-06T04:07:54;2.20;99.90
25208;DHT22;13153;52.316;21.166;2023-04-06T04:10:20;2.20;99.90
25208;DHT22;13153;52.316;21.166;2023-04-06T04:12:46;2.20;99.90
25208;DHT22;13153;52.316;21.166;2023-04-06T04:15:12;2.20;99.90
25208;DHT22;13153;52.316;21.166;2023-04-06T04:17:38;2.20;99.90
25208;DHT22;13153;52.316;21.166;2023-04-06T04:20:04;2.20;99.90
25208;DHT22;13153;52.316;21.166;2023-04-06T04:22:30;2.20;99.90
25208;DHT22;13153;52.316;21.166;2023-04-06T04:24:56;2.30;99.90
25208;DHT22;13153;52.316;21.166;2023-04-06T04:27:21;2.30;99.90
25208;DHT22;13153;52.316;21.166;2023-04-06T04:29:47;2.20;99.90
25208;DHT22;13153;52.316;21.166;2023-04-06T04:32:13;2.30;99.90
25208;DHT22;13153;52.316;21.166;2023-04-06T04:34:40;2.30;99.90
25208;DHT22;13153;52.316;21.166;2023-04-06T04:37:06;2.30;99.90
25208;DHT22;13153;52.316;21.166;2023-04-06T04:39:32;2.30;99.90
25208;DHT22;13153;52.316;21.166;2023-04-06T04:41:58;2.30;99.90
25208;DHT22;13153;52.316;21.166;2023-04-06T04:44:24;2.40;99.90
25208;DHT22;13153;52.316;21.166;2023-04-06T04:46:49;2.40;99.90
25208;DHT22;13153;52.316;21.166;2023-04-06T04:49:15;2.50;99.90
25208;DHT22;13153;52.316;21.166;2023-04-06T04:51:41;2.60;99.90
25208;DHT22;13153;52.316;21.166;2023-04-06T04:54:07;2.50;99.90
25208;DHT22;13153;52.316;21.166;2023-04-06T04:56:32;2.50;99.90
25208;DHT22;13153;52.316;21.166;2023-04-06T04:58:58;2.50;99.90
25208;DHT22;13153;52.316;21.166;2023-04-06T05:01:24;2.60;99.90
25208;DHT22;13153;52.316;21.166;2023-04-06T05:03:50;2.60;99.90
25208;DHT22;13153;52.316;21.166;2023-04-06T05:06:16;2.60;99.90
25208;DHT22;13153;52.316;21.166;2023-04-06T05:08:43;2.70;99.90
25208;DHT22;13153;52.316;21.166;2023-04-06T05:11:09;2.70;99.90
25208;DHT22;13153;52.316;21.166;2023-04-06T05:13:35;2.70;99.90
25208;DHT22;13153;52.316;21.166;2023-04-06T05:16:01;2.80;99.90
25208;DHT22;13153;52.316;21.166;2023-04-06T05:18:27;2.90;99.90
25208;DHT22;13153;52.316;21.166;2023-04-06T05:20:53;2.90;99.90
25208;DHT22;13153;52.316;21.166;2023-04-06T05:23:18;3.00;99.90
25208;DHT22;13153;52.316;21.166;2023-04-06T05:25:44;3.10;99.90
25208;DHT22;13153;52.316;21.166;2023-04-06T05:28:10;3.30;99.90
25208;DHT22;13153;52.316;21.166;2023-04-06T05:30:39;3.40;99.90
25208;DHT22;13153;52.316;21.166;2023-04-06T05:33:05;3.50;99.90
25208;DHT22;13153;52.316;21.166;2023-04-06T05:35:31;3.70;99.90
25208;DHT22;13153;52.316;21.166;2023-04-06T05:37:57;3.80;99.90
25208;DHT22;13153;52.316;21.166;2023-04-06T05:40:23;3.90;99.90
25208;DHT22;13153;52.316;21.166;2023-04-06T05:42:49;4.00;99.90
25208;DHT22;13153;52.316;21.166;2023-04-06T05:45:18;4.20;99.90
25208;DHT22;13153;52.316;21.166;2023-04-06T05:47:44;4.30;99.90
25208;DHT22;13153;52.316;21.166;2023-04-06T05:50:11;4.40;99.90
25208;DHT22;13153;52.316;21.166;2023-04-06T05:52:38;4.40;99.90
25208;DHT22;13153;52.316;21.166;2023-04-06T05:55:04;4.50;99.90
25208;DHT22;13153;52.316;21.166;2023-04-06T05:57:30;4.60;99.90
25208;DHT22;13153;52.316;21.166;2023-04-06T05:59:56;4.60;99.90
25208;DHT22;13153;52.316;21.166;2023-04-06T06:02:22;4.60;99.90
25208;DHT22;13153;52.316;21.166;2023-04-06T06:04:48;4.50;99.90
25208;DHT22;13153;52.316;21.166;2023-04-06T06:07:14;4.50;99.90
25208;DHT22;13153;52.316;21.166;2023-04-06T06:09:40;4.40;99.90
25208;DHT22;13153;52.316;21.166;2023-04-06T06:12:06;4.30;99.90
25208;DHT22;13153;52.316;21.166;2023-04-06T06:14:33;4.10;99.90
25208;DHT22;13153;52.316;21.166;2023-04-06T06:16:58;4.00;99.90
25208;DHT22;13153;52.316;21.166;2023-04-06T06:19:25;4.00;99.90
25208;DHT22;13153;52.316;21.166;2023-04-06T06:21:51;4.00;99.90
25208;DHT22;13153;52.316;21.166;2023-04-06T06:24:17;4.10;99.90
25208;DHT22;13153;52.316;21.166;2023-04-06T06:26:43;4.10;99.90
25208;DHT22;13153;52.316;21.166;2023-04-06T06:29:09;4.10;99.90
25208;DHT22;13153;52.316;21.166;2023-04-06T06:31:35;4.00;99.90
25208;DHT22;13153;52.316;21.166;2023-04-06T06:34:01;3.90;99.90
25208;DHT22;13153;52.316;21.166;2023-04-06T06:36:28;3.80;99.90
25208;DHT22;13153;52.316;21.166;2023-04-06T06:38:56;3.80;99.90
25208;DHT22;13153;52.316;21.166;2023-04-06T06:41:22;3.90;99.90
25208;DHT22;13153;52.316;21.166;2023-04-06T06:43:48;3.80;99.90
25208;DHT22;13153;52.316;21.166;2023-04-06T06:46:13;3.90;99.90
25208;DHT22;13153;52.316;21.166;2023-04-06T06:48:39;4.00;99.90
25208;DHT22;13153;52.316;21.166;2023-04-06T06:51:05;3.90;99.90
25208;DHT22;13153;52.316;21.166;2023-04-06T06:53:31;3.80;99.90
25208;DHT22;13153;52.316;21.166;2023-04-06T06:55:57;4.00;99.90
25208;DHT22;13153;52.316;21.166;2023-04-06T06:58:23;4.20;99.90
25208;DHT22;13153;52.316;21.166;2023-04-06T07:00:48;4.50;99.90
25208;DHT22;13153;52.316;21.166;2023-04-06T07:03:14;4.70;99.90
25208;DHT22;13153;52.316;21.166;2023-04-06T07:05:47;5.00;99.90
25208;DHT22;13153;52.316;21.166;2023-04-06T07:08:19;5.20;99.90
25208;DHT22;13153;52.316;21.166;2023-04-06T07:10:45;5.30;99.90
25208;DHT22;13153;52.316;21.166;2023-04-06T07:13:11;5.30;99.90
25208;DHT22;13153;52.316;21.166;2023-04-06T07:15:37;5.10;99.90
25208;DHT22;13153;52.316;21.166;2023-04-06T07:18:03;5.00;99.90
25208;DHT22;13153;52.316;21.166;2023-04-06T07:20:29;4.80;99.90
25208;DHT22;13153;52.316;21.166;2023-04-06T07:22:55;4.60;99.90
25208;DHT22;13153;52.316;21.166;2023-04-06T07:25:20;4.60;99.90
25208;DHT22;13153;52.316;21.166;2023-04-06T07:27:46;4.60;99.90
25208;DHT22;13153;52.316;21.166;2023-04-06T07:30:13;4.50;99.90
25208;DHT22;13153;52.316;21.166;2023-04-06T07:32:39;4.40;99.90
25208;DHT22;13153;52.316;21.166;2023-04-06T07:35:05;4.30;99.90
25208;DHT22;13153;52.316;21.166;2023-04-06T07:37:31;4.30;99.90
25208;DHT22;13153;52.316;21.166;2023-04-06T07:39:57;4.20;99.90
25208;DHT22;13153;52.316;21.166;2023-04-06T07:42:22;4.20;99.90
25208;DHT22;13153;52.316;21.166;2023-04-06T07:44:48;4.10;99.90
25208;DHT22;13153;52.316;21.166;2023-04-06T07:47:14;4.20;99.90
25208;DHT22;13153;52.316;21.166;2023-04-06T07:49:40;4.20;99.90
25208;DHT22;13153;52.316;21.166;2023-04-06T07:52:06;4.20;99.90
25208;DHT22;13153;52.316;21.166;2023-04-06T07:54:31;4.30;99.90
25208;DHT22;13153;52.316;21.166;2023-04-06T07:56:57;4.30;99.90
25208;DHT22;13153;52.316;21.166;2023-04-06T07:59:24;4.10;99.90
25208;DHT22;13153;52.316;21.166;2023-04-06T08:01:49;4.20;99.90
25208;DHT22;13153;52.316;21.166;2023-04-06T08:04:15;4.20;99.90
25208;DHT22;13153;52.316;21.166;2023-04-06T08:06:41;4.30;99.90
25208;DHT22;13153;52.316;21.166;2023-04-06T08:09:07;4.40;99.90
25208;DHT22;13153;52.316;21.166;2023-04-06T08:11:32;4.40;99.90
25208;DHT22;13153;52.316;21.166;2023-04-06T08:13:58;4.40;99.90
25208;DHT22;13153;52.316;21.166;2023-04-06T08:16:24;4.40;99.90
25208;DHT22;13153;52.316;21.166;2023-04-06T08:18:50;4.40;99.90
25208;DHT22;13153;52.316;21.166;2023-04-06T08:21:16;4.50;99.90
25208;DHT22;13153;52.316;21.166;2023-04-06T08:23:42;4.40;99.90
25208;DHT22;13153;52.316;21.166;2023-04-06T08:26:07;4.30;99.90
25208;DHT22;13153;52.316;21.166;2023-04-06T08:28:33;4.20;99.90
25208;DHT22;13153;52.316;21.166;2023-04-06T08:31:04;4.00;99.90
25208;DHT22;13153;52.316;21.166;2023-04-06T08:33:33;3.90;99.90
25208;DHT22;13153;52.316;21.166;2023-04-06T08:36:11;3.80;99.90
25208;DHT22;13153;52.316;21.166;2023-04-06T08:38:39;3.90;99.90
25208;DHT22;13153;52.316;21.166;2023-04-06T08:41:08;3.90;99.90
25208;DHT22;13153;52.316;21.166;2023-04-06T08:43:42;3.90;99.90
25208;DHT22;13153;52.316;21.166;2023-04-06T08:46:08;4.00;99.90
25208;DHT22;13153;52.316;21.166;2023-04-06T08:48:37;4.00;99.90
25208;DHT22;13153;52.316;21.166;2023-04-06T08:51:05;4.10;99.90
25208;DHT22;13153;52.316;21.166;2023-04-06T08:53:31;4.20;99.90
25208;DHT22;13153;52.316;21.166;2023-04-06T08:55:58;4.30;99.90
25208;DHT22;13153;52.316;21.166;2023-04-06T08:58:25;4.40;99.90
25208;DHT22;13153;52.316;21.166;2023-04-06T09:00:54;4.40;99.90
25208;DHT22;13153;52.316;21.166;2023-04-06T09:03:21;4.40;99.90
25208;DHT22;13153;52.316;21.166;2023-04-06T09:05:48;4.40;99.90
25208;DHT22;13153;52.316;21.166;2023-04-06T09:08:14;4.30;99.90
25208;DHT22;13153;52.316;21.166;2023-04-06T09:10:43;4.20;99.90
25208;DHT22;13153;52.316;21.166;2023-04-06T09:13:09;4.20;99.90
25208;DHT22;13153;52.316;21.166;2023-04-06T09:15:37;4.20;99.90
25208;DHT22;13153;52.316;21.166;2023-04-06T09:18:03;4.30;99.90
25208;DHT22;13153;52.316;21.166;2023-04-06T09:20:29;4.30;99.90
25208;DHT22;13153;52.316;21.166;2023-04-06T09:22:55;4.30;99.90
25208;DHT22;13153;52.316;21.166;2023-04-06T09:25:23;4.30;99.90
25208;DHT22;13153;52.316;21.166;2023-04-06T09:28:04;4.20;99.90
25208;DHT22;13153;52.316;21.166;2023-04-06T09:30:32;4.10;99.90
25208;DHT22;13153;52.316;21.166;2023-04-06T09:32:58;4.10;99.90
25208;DHT22;13153;52.316;21.166;2023-04-06T09:35:24;4.10;99.90
25208;DHT22;13153;52.316;21.166;2023-04-06T09:37:52;4.10;99.90
25208;DHT22;13153;52.316;21.166;2023-04-06T09:40:19;4.10;99.90
25208;DHT22;13153;52.316;21.166;2023-04-06T09:42:48;4.20;99.90
25208;DHT22;13153;52.316;21.166;2023-04-06T09:45:19;4.10;99.90
25208;DHT22;13153;52.316;21.166;2023-04-06T09:47:46;4.20;99.90
25208;DHT22;13153;52.316;21.166;2023-04-06T09:50:13;4.20;99.90
25208;DHT22;13153;52.316;21.166;2023-04-06T09:52:49;4.30;99.90
25208;DHT22;13153;52.316;21.166;2023-04-06T09:55:23;4.30;99.90
25208;DHT22;13153;52.316;21.166;2023-04-06T09:58:08;4.30;99.90
25208;DHT22;13153;52.316;21.166;2023-04-06T10:01:09;4.20;99.90
25208;DHT22;13153;52.316;21.166;2023-04-06T10:06:35;4.00;99.90
25208;DHT22;13153;52.316;21.166;2023-04-06T10:09:04;4.10;99.90
25208;DHT22;13153;52.316;21.166;2023-04-06T10:11:34;4.10;99.90
25208;DHT22;13153;52.316;21.166;2023-04-06T10:14:00;4.10;99.90
25208;DHT22;13153;52.316;21.166;2023-04-06T10:16:26;4.20;99.90
25208;DHT22;13153;52.316;21.166;2023-04-06T10:18:58;4.20;99.90
25208;DHT22;13153;52.316;21.166;2023-04-06T10:21:31;4.20;99.90
25208;DHT22;13153;52.316;21.166;2023-04-06T10:24:01;4.20;99.90
25208;DHT22;13153;52.316;21.166;2023-04-06T10:26:28;4.20;99.90
25208;DHT22;13153;52.316;21.166;2023-04-06T10:28:54;4.00;99.90
25208;DHT22;13153;52.316;21.166;2023-04-06T10:31:27;3.90;99.90
25208;DHT22;13153;52.316;21.166;2023-04-06T10:33:58;3.90;99.90
25208;DHT22;13153;52.316;21.166;2023-04-06T10:36:28;3.80;99.90
25208;DHT22;13153;52.316;21.166;2023-04-06T10:39:03;3.90;99.90
25208;DHT22;13153;52.316;21.166;2023-04-06T10:41:56;4.00;99.90
25208;DHT22;13153;52.316;21.166;2023-04-06T10:44:42;4.00;99.90
25208;DHT22;13153;52.316;21.166;2023-04-06T10:47:16;4.00;99.90
25208;DHT22;13153;52.316;21.166;2023-04-06T10:49:45;4.00;99.90
25208;DHT22;13153;52.316;21.166;2023-04-06T10:52:11;4.10;99.90
25208;DHT22;13153;52.316;21.166;2023-04-06T10:54:42;4.00;99.90
25208;DHT22;13153;52.316;21.166;2023-04-06T10:57:09;4.10;99.90
25208;DHT22;13153;52.316;21.166;2023-04-06T10:59:35;4.00;99.90
25208;DHT22;13153;52.316;21.166;2023-04-06T11:02:01;4.00;99.90
25208;DHT22;13153;52.316;21.166;2023-04-06T11:04:26;4.10;99.90
25208;DHT22;13153;52.316;21.166;2023-04-06T11:06:52;4.00;99.90
25208;DHT22;13153;52.316;21.166;2023-04-06T11:09:26;4.00;99.90
25208;DHT22;13153;52.316;21.166;2023-04-06T11:11:53;4.00;99.90
25208;DHT22;13153;52.316;21.166;2023-04-06T11:14:19;4.10;99.90
25208;DHT22;13153;52.316;21.166;2023-04-06T11:16:47;4.10;99.90
25208;DHT22;13153;52.316;21.166;2023-04-06T11:19:16;4.10;99.90
25208;DHT22;13153;52.316;21.166;2023-04-06T11:21:48;4.10;99.90
25208;DHT22;13153;52.316;21.166;2023-04-06T11:26:43;4.30;99.90
25208;DHT22;13153;52.316;21.166;2023-04-06T11:29:12;4.10;99.90
25208;DHT22;13153;52.316;21.166;2023-04-06T11:31:44;4.10;99.90
25208;DHT22;13153;52.316;21.166;2023-04-06T11:34:19;4.10;99.90
25208;DHT22;13153;52.316;21.166;2023-04-06T11:36:49;4.10;99.90
25208;DHT22;13153;52.316;21.166;2023-04-06T11:39:28;4.10;99.90
25208;DHT22;13153;52.316;21.166;2023-04-06T11:41:58;4.20;99.90
25208;DHT22;13153;52.316;21.166;2023-04-06T11:44:33;4.10;99.90
25208;DHT22;13153;52.316;21.166;2023-04-06T11:47:02;4.10;99.90
25208;DHT22;13153;52.316;21.166;2023-04-06T11:49:29;4.10;99.90
25208;DHT22;13153;52.316;21.166;2023-04-06T11:51:57;4.10;99.90
25208;DHT22;13153;52.316;21.166;2023-04-06T11:54:35;4.10;99.90
25208;DHT22;13153;52.316;21.166;2023-04-06T11:57:04;4.10;99.90
25208;DHT22;13153;52.316;21.166;2023-04-06T11:59:31;4.10;99.90
25208;DHT22;13153;52.316;21.166;2023-04-06T12:01:58;4.20;99.90
25208;DHT22;13153;52.316;21.166;2023-04-06T12:04:24;4.20;99.90
25208;DHT22;13153;52.316;21.166;2023-04-06T12:06:50;4.20;99.90
25208;DHT22;13153;52.316;21.166;2023-04-06T12:09:16;4.20;99.90
25208;DHT22;13153;52.316;21.166;2023-04-06T12:11:43;4.20;99.90
25208;DHT22;13153;52.316;21.166;2023-04-06T12:14:10;4.20;99.90
25208;DHT22;13153;52.316;21.166;2023-04-06T12:16:37;4.20;99.90
25208;DHT22;13153;52.316;21.166;2023-04-06T12:19:03;4.20;99.90
25208;DHT22;13153;52.316;21.166;2023-04-06T12:21:29;4.20;99.90
25208;DHT22;13153;52.316;21.166;2023-04-06T12:23:57;4.20;99.90
25208;DHT22;13153;52.316;21.166;2023-04-06T12:26:23;4.20;99.90
25208;DHT22;13153;52.316;21.166;2023-04-06T12:28:50;4.20;99.90
25208;DHT22;13153;52.316;21.166;2023-04-06T12:31:17;4.30;99.90
25208;DHT22;13153;52.316;21.166;2023-04-06T12:33:47;4.20;99.90
25208;DHT22;13153;52.316;21.166;2023-04-06T12:36:15;4.20;99.90
25208;DHT22;13153;52.316;21.166;2023-04-06T12:38:49;4.20;99.90
25208;DHT22;13153;52.316;21.166;2023-04-06T12:41:18;4.10;99.90
25208;DHT22;13153;52.316;21.166;2023-04-06T12:43:45;4.20;99.90
25208;DHT22;13153;52.316;21.166;2023-04-06T12:46:11;4.20;99.90
25208;DHT22;13153;52.316;21.166;2023-04-06T12:48:38;4.20;99.90
25208;DHT22;13153;52.316;21.166;2023-04-06T12:51:05;4.30;99.90
25208;DHT22;13153;52.316;21.166;2023-04-06T12:53:32;4.20;99.90
25208;DHT22;13153;52.316;21.166;2023-04-06T12:56:02;4.20;99.90
25208;DHT22;13153;52.316;21.166;2023-04-06T12:58:36;4.20;99.90
25208;DHT22;13153;52.316;21.166;2023-04-06T13:01:06;4.20;99.90
25208;DHT22;13153;52.316;21.166;2023-04-06T13:03:32;4.30;99.90
25208;DHT22;13153;52.316;21.166;2023-04-06T13:06:00;4.30;99.90
25208;DHT22;13153;52.316;21.166;2023-04-06T13:08:26;4.30;99.90
25208;DHT22;13153;52.316;21.166;2023-04-06T13:10:53;4.30;99.90
25208;DHT22;13153;52.316;21.166;2023-04-06T13:13:26;4.30;99.90
25208;DHT22;13153;52.316;21.166;2023-04-06T13:15:55;4.40;99.90
25208;DHT22;13153;52.316;21.166;2023-04-06T13:18:26;4.40;99.90
25208;DHT22;13153;52.316;21.166;2023-04-06T13:20:52;4.40;99.90
25208;DHT22;13153;52.316;21.166;2023-04-06T13:23:18;4.50;99.90
25208;DHT22;13153;52.316;21.166;2023-04-06T13:25:44;4.50;99.90
25208;DHT22;13153;52.316;21.166;2023-04-06T13:28:10;4.50;99.90
25208;DHT22;13153;52.316;21.166;2023-04-06T13:30:36;4.50;99.90
25208;DHT22;13153;52.316;21.166;2023-04-06T13:33:02;4.50;99.90
25208;DHT22;13153;52.316;21.166;2023-04-06T13:35:28;4.50;99.90
25208;DHT22;13153;52.316;21.166;2023-04-06T13:37:53;4.50;99.90
25208;DHT22;13153;52.316;21.166;2023-04-06T13:40:19;4.50;99.90
25208;DHT22;13153;52.316;21.166;2023-04-06T13:42:46;4.40;99.90
25208;DHT22;13153;52.316;21.166;2023-04-06T13:45:13;4.50;99.90
25208;DHT22;13153;52.316;21.166;2023-04-06T13:47:39;4.40;99.90
25208;DHT22;13153;52.316;21.166;2023-04-06T13:50:05;4.40;99.90
25208;DHT22;13153;52.316;21.166;2023-04-06T13:52:31;4.30;99.90
25208;DHT22;13153;52.316;21.166;2023-04-06T13:54:57;4.30;99.90
25208;DHT22;13153;52.316;21.166;2023-04-06T13:57:23;4.30;99.90
25208;DHT22;13153;52.316;21.166;2023-04-06T13:59:49;4.40;99.90
25208;DHT22;13153;52.316;21.166;2023-04-06T14:02:17;4.30;99.90
25208;DHT22;13153;52.316;21.166;2023-04-06T14:04:43;4.30;99.90
25208;DHT22;13153;52.316;21.166;2023-04-06T14:07:10;4.30;99.90
25208;DHT22;13153;52.316;21.166;2023-04-06T14:09:36;4.30;99.90
25208;DHT22;13153;52.316;21.166;2023-04-06T14:12:01;4.30;99.90
25208;DHT22;13153;52.316;21.166;2023-04-06T14:14:27;4.30;99.90
25208;DHT22;13153;52.316;21.166;2023-04-06T14:16:53;4.30;99.90
25208;DHT22;13153;52.316;21.166;2023-04-06T14:19:19;4.40;99.90
25208;DHT22;13153;52.316;21.166;2023-04-06T14:21:47;4.40;99.90
25208;DHT22;13153;52.316;21.166;2023-04-06T14:24:14;4.40;99.90
25208;DHT22;13153;52.316;21.166;2023-04-06T14:26:41;4.40;99.90
25208;DHT22;13153;52.316;21.166;2023-04-06T14:29:08;4.40;99.90
25208;DHT22;13153;52.316;21.166;2023-04-06T14:31:34;4.30;99.90
25208;DHT22;13153;52.316;21.166;2023-04-06T14:34:02;4.30;99.90
25208;DHT22;13153;52.316;21.166;2023-04-06T14:36:31;4.40;99.90
25208;DHT22;13153;52.316;21.166;2023-04-06T14:39:03;4.40;99.90
25208;DHT22;13153;52.316;21.166;2023-04-06T14:41:30;4.40;99.90
25208;DHT22;13153;52.316;21.166;2023-04-06T14:43:56;4.40;99.90
25208;DHT22;13153;52.316;21.166;2023-04-06T14:46:22;4.40;99.90
25208;DHT22;13153;52.316;21.166;2023-04-06T14:48:48;4.40;99.90
25208;DHT22;13153;52.316;21.166;2023-04-06T14:51:15;4.40;99.90
25208;DHT22;13153;52.316;21.166;2023-04-06T14:53:40;4.40;99.90
25208;DHT22;13153;52.316;21.166;2023-04-06T14:56:06;4.40;99.90
25208;DHT22;13153;52.316;21.166;2023-04-06T14:58:32;4.40;99.90
25208;DHT22;13153;52.316;21.166;2023-04-06T15:00:59;4.40;99.90
25208;DHT22;13153;52.316;21.166;2023-04-06T15:03:27;4.40;99.90
25208;DHT22;13153;52.316;21.166;2023-04-06T15:05:54;4.50;99.90
25208;DHT22;13153;52.316;21.166;2023-04-06T15:08:21;4.50;99.90
25208;DHT22;13153;52.316;21.166;2023-04-06T15:10:49;4.50;99.90
25208;DHT22;13153;52.316;21.166;2023-04-06T15:13:15;4.50;99.90
25208;DHT22;13153;52.316;21.166;2023-04-06T15:15:42;4.50;99.90
25208;DHT22;13153;52.316;21.166;2023-04-06T15:18:09;4.50;99.90
25208;DHT22;13153;52.316;21.166;2023-04-06T15:20:37;4.50;99.90
25208;DHT22;13153;52.316;21.166;2023-04-06T15:23:04;4.40;99.90
25208;DHT22;13153;52.316;21.166;2023-04-06T15:25:30;4.40;99.90
25208;DHT22;13153;52.316;21.166;2023-04-06T15:27:56;4.40;99.90
25208;DHT22;13153;52.316;21.166;2023-04-06T15:30:22;4.40;99.90
25208;DHT22;13153;52.316;21.166;2023-04-06T15:32:57;4.40;99.90
25208;DHT22;13153;52.316;21.166;2023-04-06T15:35:26;4.40;99.90